DLH85M LFML-EDDF
Flight info
| Callsign | DLH85M |
|---|---|
| Flight time | 1h 15m |
| Altitude | 34000 |
| Route | ETREK DCT LUXAN DCT LTP DCT SOPLO DCT OMASI DCT KINNI DCT SOSAL DCT KORED DCT BERSU DCT DITON DCT LADOL T163 EMPAX EMPAX5C |
| Aircraft | A321/M-SDE3FGHIRWY/LB1 |
Departure
| Time | 2026-05-05 05:43 |
|---|---|
| Airport | Marseille Provence Airport (LFML) |
Arrival
| Time | 2026-05-05 06:58 |
|---|---|
| Airport | Frankfurt Main Airport (EDDF) |
| Time | Latitude | Longitude | Altitude | Speed | Heading |
|---|---|---|---|---|---|
| 2026-05-05 05:23 | 43.43849 | 5.22483 | 49 ft | 0 kts | 311° |
| 2026-05-05 05:29 | 43.43837 | 5.22503 | 46 ft | 4 kts | 298° |
| 2026-05-05 05:29 | 43.43830 | 5.22536 | 49 ft | 4 kts | 257° |
| 2026-05-05 05:29 | 43.43840 | 5.22559 | 49 ft | 1 kts | 204° |
| 2026-05-05 05:32 | 43.43836 | 5.22557 | 49 ft | 1 kts | 203° |
| 2026-05-05 05:32 | 43.43824 | 5.22549 | 50 ft | 4 kts | 204° |
| 2026-05-05 05:32 | 43.43786 | 5.22519 | 48 ft | 9 kts | 218° |
| 2026-05-05 05:33 | 43.43755 | 5.22433 | 49 ft | 11 kts | 253° |
| 2026-05-05 05:33 | 43.43734 | 5.22323 | 49 ft | 13 kts | 262° |
| 2026-05-05 05:33 | 43.43730 | 5.22197 | 47 ft | 14 kts | 241° |
| 2026-05-05 05:33 | 43.43702 | 5.22077 | 44 ft | 14 kts | 294° |
| 2026-05-05 05:34 | 43.43784 | 5.21983 | 43 ft | 17 kts | 316° |
| 2026-05-05 05:34 | 43.43870 | 5.21863 | 42 ft | 19 kts | 316° |
| 2026-05-05 05:34 | 43.43960 | 5.21732 | 39 ft | 15 kts | 314° |
| 2026-05-05 05:34 | 43.43963 | 5.21615 | 37 ft | 14 kts | 230° |
| 2026-05-05 05:35 | 43.43924 | 5.21501 | 38 ft | 14 kts | 280° |
| 2026-05-05 05:35 | 43.43989 | 5.21392 | 36 ft | 16 kts | 314° |
| 2026-05-05 05:35 | 43.44071 | 5.21274 | 34 ft | 18 kts | 314° |
| 2026-05-05 05:35 | 43.44164 | 5.21141 | 31 ft | 20 kts | 314° |
| 2026-05-05 05:36 | 43.44265 | 5.20990 | 28 ft | 22 kts | 306° |
| 2026-05-05 05:36 | 43.44352 | 5.20808 | 28 ft | 24 kts | 310° |
| 2026-05-05 05:36 | 43.44469 | 5.20638 | 23 ft | 25 kts | 314° |
| 2026-05-05 05:36 | 43.44586 | 5.20472 | 20 ft | 22 kts | 314° |
| 2026-05-05 05:37 | 43.44698 | 5.20311 | 17 ft | 24 kts | 314° |
| 2026-05-05 05:37 | 43.44816 | 5.20144 | 14 ft | 25 kts | 314° |
| 2026-05-05 05:37 | 43.44906 | 5.20014 | 13 ft | 12 kts | 314° |
| 2026-05-05 05:37 | 43.44943 | 5.19962 | 11 ft | 0 kts | 314° |
| 2026-05-05 05:40 | 43.44946 | 5.19958 | 11 ft | 3 kts | 314° |
| 2026-05-05 05:40 | 43.44974 | 5.19915 | 10 ft | 9 kts | 306° |
| 2026-05-05 05:41 | 43.44972 | 5.19829 | 10 ft | 10 kts | 231° |
| 2026-05-05 05:41 | 43.44917 | 5.19775 | 11 ft | 10 kts | 212° |
| 2026-05-05 05:41 | 43.44870 | 5.19799 | 10 ft | 0 kts | 133° |
| 2026-05-05 05:41 | 43.44870 | 5.19800 | 10 ft | 0 kts | 133° |
| 2026-05-05 05:42 | 43.44861 | 5.19812 | 11 ft | 6 kts | 133° |
| 2026-05-05 05:42 | 43.44669 | 5.20083 | 16 ft | 74 kts | 134° |
| 2026-05-05 05:42 | 43.44161 | 5.20806 | 30 ft | 133 kts | 134° |
| 2026-05-05 05:42 | 43.43409 | 5.21869 | 177 ft | 167 kts | 135° |
| 2026-05-05 05:43 | 43.42618 | 5.23011 | 885 ft | 164 kts | 137° |
| 2026-05-05 05:43 | 43.42045 | 5.24384 | 1455 ft | 177 kts | 100° |
| 2026-05-05 05:43 | 43.42208 | 5.26174 | 1706 ft | 202 kts | 77° |
| 2026-05-05 05:43 | 43.42723 | 5.28089 | 1875 ft | 226 kts | 59° |
| 2026-05-05 05:44 | 43.43829 | 5.29740 | 2045 ft | 250 kts | 39° |
| 2026-05-05 05:44 | 43.45406 | 5.31028 | 2439 ft | 267 kts | 21° |
| 2026-05-05 05:44 | 43.47207 | 5.31574 | 3076 ft | 271 kts | 359° |
| 2026-05-05 05:44 | 43.49047 | 5.31104 | 3770 ft | 271 kts | 332° |
| 2026-05-05 05:45 | 43.50671 | 5.29811 | 4548 ft | 269 kts | 325° |
| 2026-05-05 05:45 | 43.52261 | 5.28441 | 5278 ft | 271 kts | 324° |
| 2026-05-05 05:45 | 43.53863 | 5.27044 | 6006 ft | 273 kts | 324° |
| 2026-05-05 05:45 | 43.55473 | 5.25640 | 6742 ft | 274 kts | 324° |
| 2026-05-05 05:46 | 43.57092 | 5.24235 | 7416 ft | 276 kts | 325° |
| 2026-05-05 05:46 | 43.58880 | 5.23173 | 8035 ft | 284 kts | 339° |
| 2026-05-05 05:46 | 43.60767 | 5.22338 | 8677 ft | 287 kts | 338° |
| 2026-05-05 05:46 | 43.62678 | 5.21481 | 9320 ft | 290 kts | 338° |
| 2026-05-05 05:47 | 43.64607 | 5.20614 | 9945 ft | 294 kts | 338° |
| 2026-05-05 05:47 | 43.66595 | 5.19716 | 10223 ft | 311 kts | 338° |
| 2026-05-05 05:47 | 43.68711 | 5.18757 | 10351 ft | 331 kts | 338° |
| 2026-05-05 05:47 | 43.70961 | 5.17733 | 10475 ft | 349 kts | 339° |
| 2026-05-05 05:48 | 43.73316 | 5.16645 | 10628 ft | 365 kts | 338° |
| 2026-05-05 05:48 | 43.75746 | 5.15499 | 11031 ft | 372 kts | 338° |
| 2026-05-05 05:48 | 43.78214 | 5.14329 | 11561 ft | 376 kts | 338° |
| 2026-05-05 05:48 | 43.80700 | 5.13151 | 12072 ft | 379 kts | 338° |
| 2026-05-05 05:49 | 43.83208 | 5.11960 | 12614 ft | 383 kts | 338° |
| 2026-05-05 05:49 | 43.85735 | 5.10758 | 13141 ft | 386 kts | 338° |
| 2026-05-05 05:49 | 43.88299 | 5.09605 | 13639 ft | 390 kts | 343° |
| 2026-05-05 05:49 | 43.90992 | 5.08906 | 14099 ft | 396 kts | 348° |
| 2026-05-05 05:50 | 43.93685 | 5.08300 | 14561 ft | 399 kts | 348° |
| 2026-05-05 05:50 | 43.96428 | 5.07679 | 15043 ft | 401 kts | 348° |
| 2026-05-05 05:50 | 43.99196 | 5.07048 | 15515 ft | 404 kts | 348° |
| 2026-05-05 05:50 | 44.01981 | 5.06408 | 15976 ft | 407 kts | 348° |
| 2026-05-05 05:51 | 44.04784 | 5.05761 | 16456 ft | 410 kts | 348° |
| 2026-05-05 05:51 | 44.07608 | 5.05110 | 16893 ft | 412 kts | 348° |
| 2026-05-05 05:51 | 44.10449 | 5.04456 | 17332 ft | 415 kts | 348° |
| 2026-05-05 05:51 | 44.13310 | 5.03798 | 17779 ft | 418 kts | 348° |
| 2026-05-05 05:52 | 44.16189 | 5.03136 | 18179 ft | 421 kts | 348° |
| 2026-05-05 05:52 | 44.19093 | 5.02467 | 18540 ft | 423 kts | 348° |
| 2026-05-05 05:52 | 44.22005 | 5.01798 | 18893 ft | 426 kts | 348° |
| 2026-05-05 05:52 | 44.24945 | 5.01120 | 19244 ft | 429 kts | 348° |
| 2026-05-05 05:53 | 44.27891 | 5.00437 | 19617 ft | 431 kts | 348° |
| 2026-05-05 05:53 | 44.30863 | 4.99751 | 19985 ft | 434 kts | 348° |
| 2026-05-05 05:53 | 44.33848 | 4.99063 | 20370 ft | 436 kts | 348° |
| 2026-05-05 05:53 | 44.36855 | 4.98367 | 20770 ft | 439 kts | 348° |
| 2026-05-05 05:54 | 44.39877 | 4.97665 | 21140 ft | 441 kts | 348° |
| 2026-05-05 05:54 | 44.42915 | 4.96959 | 21509 ft | 444 kts | 348° |
| 2026-05-05 05:54 | 44.45976 | 4.96248 | 21876 ft | 447 kts | 348° |
| 2026-05-05 05:54 | 44.49013 | 4.95543 | 22237 ft | 450 kts | 348° |
| 2026-05-05 05:55 | 44.52105 | 4.94821 | 22585 ft | 453 kts | 349° |
| 2026-05-05 05:55 | 44.55230 | 4.94087 | 22844 ft | 458 kts | 349° |
| 2026-05-05 05:55 | 44.58384 | 4.93348 | 23191 ft | 461 kts | 349° |
| 2026-05-05 05:55 | 44.61555 | 4.92610 | 23527 ft | 462 kts | 349° |
| 2026-05-05 05:56 | 44.64730 | 4.91873 | 23804 ft | 464 kts | 349° |
| 2026-05-05 05:56 | 44.67926 | 4.91123 | 24086 ft | 467 kts | 349° |
| 2026-05-05 05:56 | 44.71129 | 4.90339 | 24363 ft | 468 kts | 346° |
| 2026-05-05 05:56 | 44.74261 | 4.89072 | 24635 ft | 468 kts | 338° |
| 2026-05-05 05:57 | 44.77287 | 4.87376 | 24903 ft | 469 kts | 336° |
| 2026-05-05 05:57 | 44.80321 | 4.85659 | 25176 ft | 471 kts | 336° |
| 2026-05-05 05:57 | 44.83369 | 4.83939 | 25449 ft | 473 kts | 336° |
| 2026-05-05 05:57 | 44.86432 | 4.82217 | 25739 ft | 475 kts | 336° |
| 2026-05-05 05:58 | 44.89513 | 4.80486 | 26012 ft | 477 kts | 336° |
| 2026-05-05 05:58 | 44.92602 | 4.78747 | 26224 ft | 479 kts | 336° |
| 2026-05-05 05:58 | 44.95703 | 4.76996 | 26447 ft | 482 kts | 336° |
| 2026-05-05 05:58 | 44.98818 | 4.75232 | 26677 ft | 483 kts | 336° |
| 2026-05-05 05:59 | 45.01943 | 4.73455 | 26919 ft | 485 kts | 336° |
| 2026-05-05 05:59 | 45.05042 | 4.71688 | 27145 ft | 488 kts | 336° |
| 2026-05-05 05:59 | 45.08223 | 4.69964 | 27402 ft | 490 kts | 342° |
| 2026-05-05 05:59 | 45.11584 | 4.69132 | 27656 ft | 494 kts | 358° |
| 2026-05-05 06:00 | 45.15009 | 4.69481 | 27933 ft | 494 kts | 12° |
| 2026-05-05 06:00 | 45.18268 | 4.70975 | 28231 ft | 491 kts | 27° |
| 2026-05-05 06:00 | 45.21152 | 4.73498 | 28492 ft | 487 kts | 41° |
| 2026-05-05 06:00 | 45.23520 | 4.76899 | 28738 ft | 480 kts | 56° |
| 2026-05-05 06:01 | 45.25268 | 4.80895 | 28941 ft | 475 kts | 65° |
| 2026-05-05 06:01 | 45.26841 | 4.85040 | 29214 ft | 476 kts | 65° |
| 2026-05-05 06:01 | 45.28407 | 4.89187 | 29515 ft | 477 kts | 65° |
| 2026-05-05 06:01 | 45.29975 | 4.93333 | 29808 ft | 475 kts | 66° |
| 2026-05-05 06:02 | 45.31535 | 4.97464 | 30050 ft | 475 kts | 65° |
| 2026-05-05 06:02 | 45.33075 | 5.01548 | 30281 ft | 474 kts | 65° |
| 2026-05-05 06:02 | 45.34628 | 5.05685 | 30439 ft | 475 kts | 65° |
| 2026-05-05 06:02 | 45.36180 | 5.09828 | 30591 ft | 476 kts | 65° |
| 2026-05-05 06:03 | 45.37740 | 5.13987 | 30768 ft | 477 kts | 65° |
| 2026-05-05 06:03 | 45.39301 | 5.18149 | 30992 ft | 477 kts | 65° |
| 2026-05-05 06:03 | 45.40861 | 5.22308 | 31205 ft | 477 kts | 65° |
| 2026-05-05 06:03 | 45.42425 | 5.26492 | 31409 ft | 478 kts | 65° |
| 2026-05-05 06:04 | 45.43982 | 5.30667 | 31617 ft | 478 kts | 65° |
| 2026-05-05 06:04 | 45.45543 | 5.34856 | 31817 ft | 479 kts | 65° |
| 2026-05-05 06:04 | 45.47104 | 5.39036 | 32064 ft | 478 kts | 64° |
| 2026-05-05 06:04 | 45.48904 | 5.43035 | 32294 ft | 481 kts | 56° |
| 2026-05-05 06:05 | 45.51098 | 5.46650 | 32472 ft | 484 kts | 47° |
| 2026-05-05 06:05 | 45.53592 | 5.49878 | 32704 ft | 484 kts | 44° |
| 2026-05-05 06:05 | 45.56108 | 5.53062 | 32907 ft | 484 kts | 44° |
| 2026-05-05 06:05 | 45.58624 | 5.56262 | 33090 ft | 484 kts | 44° |
| 2026-05-05 06:06 | 45.61131 | 5.59465 | 33275 ft | 484 kts | 44° |
| 2026-05-05 06:06 | 45.63638 | 5.62680 | 33460 ft | 484 kts | 44° |
| 2026-05-05 06:06 | 45.66112 | 5.65858 | 33634 ft | 484 kts | 45° |
| 2026-05-05 06:06 | 45.68626 | 5.69091 | 33834 ft | 485 kts | 45° |
| 2026-05-05 06:07 | 45.73648 | 5.75561 | 33915 ft | 486 kts | 44° |
| 2026-05-05 06:07 | 45.78680 | 5.82022 | 33917 ft | 486 kts | 44° |
| 2026-05-05 06:08 | 45.83714 | 5.88487 | 33921 ft | 486 kts | 45° |
| 2026-05-05 06:08 | 45.88751 | 5.94996 | 33923 ft | 486 kts | 46° |
| 2026-05-05 06:09 | 45.93778 | 6.01498 | 33922 ft | 486 kts | 46° |
| 2026-05-05 06:09 | 45.98760 | 6.07966 | 33924 ft | 485 kts | 46° |
| 2026-05-05 06:10 | 46.03775 | 6.14485 | 33926 ft | 486 kts | 46° |
| 2026-05-05 06:10 | 46.08787 | 6.21029 | 33921 ft | 487 kts | 46° |
| 2026-05-05 06:11 | 46.13692 | 6.27751 | 33918 ft | 486 kts | 48° |
| 2026-05-05 06:11 | 46.18474 | 6.34663 | 33926 ft | 487 kts | 49° |
| 2026-05-05 06:12 | 46.23259 | 6.41598 | 33911 ft | 488 kts | 50° |
| 2026-05-05 06:12 | 46.28081 | 6.48502 | 33921 ft | 488 kts | 49° |
| 2026-05-05 06:13 | 46.32920 | 6.55406 | 33929 ft | 489 kts | 49° |
| 2026-05-05 06:13 | 46.37729 | 6.62297 | 33933 ft | 490 kts | 49° |
| 2026-05-05 06:14 | 46.42566 | 6.69255 | 33939 ft | 491 kts | 49° |
| 2026-05-05 06:14 | 46.47407 | 6.76241 | 33939 ft | 491 kts | 49° |
| 2026-05-05 06:15 | 46.52243 | 6.83254 | 33951 ft | 491 kts | 50° |
| 2026-05-05 06:15 | 46.56928 | 6.90435 | 33948 ft | 486 kts | 56° |
| 2026-05-05 06:16 | 46.61179 | 6.98090 | 33965 ft | 485 kts | 56° |
| 2026-05-05 06:16 | 46.65392 | 7.05669 | 33966 ft | 484 kts | 56° |
| 2026-05-05 06:17 | 46.69619 | 7.13304 | 33964 ft | 484 kts | 56° |
| 2026-05-05 06:17 | 46.73832 | 7.20947 | 33963 ft | 483 kts | 56° |
| 2026-05-05 06:18 | 46.78047 | 7.28604 | 33965 ft | 484 kts | 56° |
| 2026-05-05 06:18 | 46.82262 | 7.36289 | 33928 ft | 485 kts | 56° |
| 2026-05-05 06:19 | 46.86465 | 7.43977 | 33957 ft | 484 kts | 56° |
| 2026-05-05 06:19 | 46.90660 | 7.51674 | 33946 ft | 483 kts | 56° |
| 2026-05-05 06:20 | 46.94837 | 7.59366 | 33942 ft | 484 kts | 56° |
| 2026-05-05 06:20 | 46.99021 | 7.67096 | 33932 ft | 485 kts | 56° |
| 2026-05-05 06:21 | 47.03211 | 7.74857 | 33928 ft | 485 kts | 56° |
| 2026-05-05 06:21 | 47.07401 | 7.82639 | 33935 ft | 486 kts | 56° |
| 2026-05-05 06:22 | 47.11579 | 7.90429 | 33941 ft | 486 kts | 56° |
| 2026-05-05 06:22 | 47.15416 | 7.98461 | 33935 ft | 482 kts | 62° |
| 2026-05-05 06:23 | 47.18977 | 8.06812 | 33926 ft | 482 kts | 62° |
| 2026-05-05 06:23 | 47.22544 | 8.15178 | 33928 ft | 482 kts | 62° |
| 2026-05-05 06:24 | 47.26098 | 8.23558 | 33919 ft | 483 kts | 62° |
| 2026-05-05 06:24 | 47.30222 | 8.31435 | 33902 ft | 491 kts | 46° |
| 2026-05-05 06:25 | 47.35804 | 8.37256 | 33907 ft | 495 kts | 26° |
| 2026-05-05 06:25 | 47.42034 | 8.41621 | 33910 ft | 495 kts | 26° |
| 2026-05-05 06:26 | 47.48234 | 8.46027 | 33958 ft | 496 kts | 26° |
| 2026-05-05 06:26 | 47.54443 | 8.50464 | 33932 ft | 496 kts | 26° |
| 2026-05-05 06:27 | 47.63785 | 8.57122 | 33933 ft | 498 kts | 26° |
| 2026-05-05 06:28 | 47.69978 | 8.61552 | 33926 ft | 498 kts | 26° |
| 2026-05-05 06:28 | 47.76218 | 8.66021 | 33917 ft | 497 kts | 26° |
| 2026-05-05 06:29 | 47.82445 | 8.70496 | 33912 ft | 497 kts | 26° |
| 2026-05-05 06:29 | 47.88673 | 8.74985 | 33909 ft | 497 kts | 26° |
| 2026-05-05 06:30 | 47.93847 | 8.78726 | 33911 ft | 497 kts | 26° |
| 2026-05-05 06:30 | 48.00064 | 8.83224 | 33913 ft | 496 kts | 26° |
| 2026-05-05 06:31 | 48.06276 | 8.87735 | 33910 ft | 497 kts | 26° |
| 2026-05-05 06:31 | 48.12481 | 8.92262 | 33904 ft | 495 kts | 25° |
| 2026-05-05 06:32 | 48.18969 | 8.95563 | 33911 ft | 492 kts | 8° |
| 2026-05-05 06:32 | 48.25743 | 8.96694 | 33906 ft | 489 kts | 3° |
| 2026-05-05 06:33 | 48.32528 | 8.97700 | 33905 ft | 489 kts | 3° |
| 2026-05-05 06:33 | 48.35916 | 8.98218 | 33740 ft | 488 kts | 3° |
| 2026-05-05 06:33 | 48.39286 | 8.98739 | 33460 ft | 486 kts | 4° |
| 2026-05-05 06:33 | 48.42660 | 8.99264 | 33189 ft | 486 kts | 4° |
| 2026-05-05 06:34 | 48.46021 | 8.99784 | 32857 ft | 486 kts | 4° |
| 2026-05-05 06:34 | 48.49404 | 9.00303 | 31939 ft | 489 kts | 4° |
| 2026-05-05 06:34 | 48.52792 | 9.00816 | 31148 ft | 489 kts | 4° |
| 2026-05-05 06:34 | 48.56185 | 9.01329 | 30265 ft | 491 kts | 4° |
| 2026-05-05 06:35 | 48.59561 | 9.01841 | 29243 ft | 494 kts | 4° |
| 2026-05-05 06:35 | 48.63019 | 9.02377 | 28294 ft | 493 kts | 5° |
| 2026-05-05 06:35 | 48.66382 | 9.03006 | 27315 ft | 493 kts | 6° |
| 2026-05-05 06:35 | 48.69826 | 9.03789 | 26350 ft | 494 kts | 8° |
| 2026-05-05 06:36 | 48.73136 | 9.04637 | 25857 ft | 485 kts | 8° |
| 2026-05-05 06:36 | 48.76444 | 9.05514 | 25190 ft | 480 kts | 8° |
| 2026-05-05 06:36 | 48.79714 | 9.06366 | 24559 ft | 475 kts | 8° |
| 2026-05-05 06:36 | 48.82964 | 9.07182 | 23924 ft | 470 kts | 7° |
| 2026-05-05 06:37 | 48.86186 | 9.07965 | 23260 ft | 466 kts | 7° |
| 2026-05-05 06:37 | 48.89375 | 9.08694 | 22638 ft | 460 kts | 6° |
| 2026-05-05 06:37 | 48.92543 | 9.09265 | 22175 ft | 456 kts | 4° |
| 2026-05-05 06:37 | 48.95701 | 9.09708 | 21671 ft | 452 kts | 3° |
| 2026-05-05 06:38 | 48.98810 | 9.10078 | 21176 ft | 447 kts | 3° |
| 2026-05-05 06:38 | 49.01906 | 9.10435 | 20685 ft | 443 kts | 3° |
| 2026-05-05 06:38 | 49.04966 | 9.10804 | 20111 ft | 439 kts | 4° |
| 2026-05-05 06:38 | 49.07956 | 9.11193 | 19579 ft | 436 kts | 4° |
| 2026-05-05 06:39 | 49.10966 | 9.11613 | 19041 ft | 433 kts | 5° |
| 2026-05-05 06:39 | 49.13950 | 9.12048 | 18500 ft | 429 kts | 5° |
| 2026-05-05 06:39 | 49.16913 | 9.12490 | 17936 ft | 426 kts | 5° |
| 2026-05-05 06:39 | 49.19851 | 9.12928 | 17391 ft | 422 kts | 5° |
| 2026-05-05 06:40 | 49.22763 | 9.13355 | 16871 ft | 419 kts | 5° |
| 2026-05-05 06:40 | 49.25649 | 9.13772 | 16352 ft | 415 kts | 5° |
| 2026-05-05 06:40 | 49.28508 | 9.14252 | 15835 ft | 412 kts | 9° |
| 2026-05-05 06:40 | 49.31295 | 9.15183 | 15272 ft | 408 kts | 12° |
| 2026-05-05 06:41 | 49.34050 | 9.16159 | 14727 ft | 404 kts | 12° |
| 2026-05-05 06:41 | 49.36781 | 9.17124 | 14153 ft | 401 kts | 12° |
| 2026-05-05 06:41 | 49.39491 | 9.18080 | 13609 ft | 397 kts | 12° |
| 2026-05-05 06:41 | 49.42170 | 9.19028 | 13095 ft | 392 kts | 12° |
| 2026-05-05 06:42 | 49.44828 | 9.19971 | 12602 ft | 391 kts | 12° |
| 2026-05-05 06:42 | 49.47460 | 9.20906 | 12067 ft | 387 kts | 12° |
| 2026-05-05 06:42 | 49.50075 | 9.21841 | 11540 ft | 384 kts | 12° |
| 2026-05-05 06:42 | 49.52667 | 9.22770 | 11011 ft | 380 kts | 12° |
| 2026-05-05 06:43 | 49.55216 | 9.23682 | 10727 ft | 370 kts | 12° |
| 2026-05-05 06:43 | 49.57666 | 9.24555 | 10596 ft | 353 kts | 12° |
| 2026-05-05 06:43 | 49.60010 | 9.25393 | 10478 ft | 337 kts | 12° |
| 2026-05-05 06:43 | 49.62250 | 9.26194 | 10355 ft | 324 kts | 12° |
| 2026-05-05 06:44 | 49.64395 | 9.26965 | 10101 ft | 309 kts | 12° |
| 2026-05-05 06:44 | 49.66468 | 9.27709 | 9980 ft | 302 kts | 12° |
| 2026-05-05 06:44 | 49.68523 | 9.28447 | 9990 ft | 304 kts | 12° |
| 2026-05-05 06:44 | 49.70581 | 9.29184 | 9979 ft | 304 kts | 12° |
| 2026-05-05 06:45 | 49.72639 | 9.29919 | 9818 ft | 303 kts | 12° |
| 2026-05-05 06:45 | 49.74693 | 9.30654 | 9665 ft | 302 kts | 12° |
| 2026-05-05 06:45 | 49.76732 | 9.31387 | 9521 ft | 302 kts | 13° |
| 2026-05-05 06:45 | 49.78778 | 9.32124 | 9380 ft | 301 kts | 12° |
| 2026-05-05 06:46 | 49.80781 | 9.32846 | 9242 ft | 299 kts | 13° |
| 2026-05-05 06:46 | 49.82811 | 9.33585 | 9101 ft | 300 kts | 13° |
| 2026-05-05 06:46 | 49.84838 | 9.34319 | 8960 ft | 299 kts | 12° |
| 2026-05-05 06:46 | 49.86901 | 9.34652 | 8824 ft | 298 kts | 357° |
| 2026-05-05 06:47 | 49.88955 | 9.34335 | 8683 ft | 296 kts | 352° |
| 2026-05-05 06:47 | 49.91002 | 9.33957 | 8541 ft | 296 kts | 352° |
| 2026-05-05 06:47 | 49.93044 | 9.33589 | 8406 ft | 295 kts | 352° |
| 2026-05-05 06:47 | 49.95083 | 9.33226 | 8268 ft | 294 kts | 352° |
| 2026-05-05 06:48 | 49.97114 | 9.32866 | 8135 ft | 294 kts | 352° |
| 2026-05-05 06:48 | 49.99143 | 9.32496 | 7998 ft | 293 kts | 349° |
| 2026-05-05 06:48 | 50.01101 | 9.31682 | 7854 ft | 291 kts | 339° |
| 2026-05-05 06:48 | 50.03016 | 9.30654 | 7727 ft | 291 kts | 339° |
| 2026-05-05 06:49 | 50.04875 | 9.29459 | 7598 ft | 288 kts | 326° |
| 2026-05-05 06:49 | 50.06341 | 9.27413 | 7430 ft | 280 kts | 302° |
| 2026-05-05 06:49 | 50.07213 | 9.24746 | 7487 ft | 279 kts | 290° |
| 2026-05-05 06:49 | 50.07953 | 9.21953 | 7491 ft | 278 kts | 289° |
| 2026-05-05 06:50 | 50.08692 | 9.19161 | 7491 ft | 279 kts | 289° |
| 2026-05-05 06:50 | 50.09426 | 9.16363 | 7496 ft | 280 kts | 289° |
| 2026-05-05 06:50 | 50.10165 | 9.13563 | 7495 ft | 279 kts | 290° |
| 2026-05-05 06:50 | 50.10904 | 9.10771 | 7352 ft | 279 kts | 289° |
| 2026-05-05 06:51 | 50.11646 | 9.07969 | 6936 ft | 279 kts | 290° |
| 2026-05-05 06:51 | 50.12392 | 9.05156 | 6548 ft | 279 kts | 289° |
| 2026-05-05 06:51 | 50.13119 | 9.02397 | 6370 ft | 271 kts | 289° |
| 2026-05-05 06:51 | 50.13821 | 8.99728 | 6246 ft | 260 kts | 289° |
| 2026-05-05 06:52 | 50.14342 | 8.97110 | 6112 ft | 246 kts | 274° |
| 2026-05-05 06:52 | 50.14290 | 8.94496 | 5874 ft | 242 kts | 255° |
| 2026-05-05 06:52 | 50.13765 | 8.92020 | 5512 ft | 240 kts | 247° |
| 2026-05-05 06:52 | 50.13170 | 8.89608 | 5186 ft | 238 kts | 248° |
| 2026-05-05 06:53 | 50.12595 | 8.87198 | 4872 ft | 236 kts | 248° |
| 2026-05-05 06:53 | 50.12031 | 8.84803 | 4561 ft | 235 kts | 249° |
| 2026-05-05 06:53 | 50.11469 | 8.82412 | 4241 ft | 235 kts | 249° |
| 2026-05-05 06:53 | 50.10913 | 8.80051 | 3932 ft | 230 kts | 249° |
| 2026-05-05 06:54 | 50.10366 | 8.77738 | 3631 ft | 225 kts | 249° |
| 2026-05-05 06:54 | 50.09832 | 8.75476 | 3343 ft | 220 kts | 249° |
| 2026-05-05 06:54 | 50.09314 | 8.73284 | 3061 ft | 211 kts | 249° |
| 2026-05-05 06:54 | 50.08817 | 8.71183 | 2768 ft | 202 kts | 249° |
| 2026-05-05 06:55 | 50.08340 | 8.69169 | 2499 ft | 195 kts | 249° |
| 2026-05-05 06:55 | 50.07879 | 8.67228 | 2238 ft | 187 kts | 249° |
| 2026-05-05 06:55 | 50.07446 | 8.65404 | 2007 ft | 174 kts | 249° |
| 2026-05-05 06:55 | 50.07041 | 8.63700 | 1781 ft | 165 kts | 250° |
| 2026-05-05 06:56 | 50.06645 | 8.62033 | 1554 ft | 160 kts | 250° |
| 2026-05-05 06:56 | 50.06270 | 8.60456 | 1356 ft | 158 kts | 250° |
| 2026-05-05 06:56 | 50.05890 | 8.58863 | 1141 ft | 156 kts | 250° |
| 2026-05-05 06:56 | 50.05515 | 8.57286 | 934 ft | 154 kts | 249° |
| 2026-05-05 06:57 | 50.05144 | 8.55738 | 726 ft | 153 kts | 249° |
| 2026-05-05 06:57 | 50.04765 | 8.54172 | 528 ft | 152 kts | 249° |
| 2026-05-05 06:57 | 50.04416 | 8.52651 | 351 ft | 146 kts | 245° |
| 2026-05-05 06:57 | 50.04138 | 8.51518 | 330 ft | 69 kts | 250° |
| 2026-05-05 06:58 | 50.04043 | 8.51129 | 327 ft | 22 kts | 245° |
| 2026-05-05 06:58 | 50.03938 | 8.50957 | 327 ft | 23 kts | 221° |
| 2026-05-05 06:58 | 50.03827 | 8.50837 | 331 ft | 15 kts | 185° |
| 2026-05-05 06:58 | 50.03764 | 8.50927 | 331 ft | 11 kts | 120° |
| 2026-05-05 06:59 | 50.03735 | 8.51029 | 336 ft | 9 kts | 114° |
| 2026-05-05 06:59 | 50.03707 | 8.51114 | 350 ft | 8 kts | 118° |
| 2026-05-05 06:59 | 50.03677 | 8.51202 | 356 ft | 9 kts | 118° |
| 2026-05-05 06:59 | 50.03647 | 8.51297 | 357 ft | 12 kts | 115° |
| 2026-05-05 07:00 | 50.03601 | 8.51446 | 360 ft | 16 kts | 116° |
| 2026-05-05 07:00 | 50.03553 | 8.51596 | 357 ft | 16 kts | 116° |
| 2026-05-05 07:00 | 50.03510 | 8.51761 | 361 ft | 17 kts | 93° |
| 2026-05-05 07:00 | 50.03523 | 8.51966 | 351 ft | 21 kts | 83° |
| 2026-05-05 07:01 | 50.03543 | 8.52203 | 342 ft | 21 kts | 82° |
| 2026-05-05 07:01 | 50.03581 | 8.52435 | 337 ft | 23 kts | 69° |
| 2026-05-05 07:01 | 50.03604 | 8.52663 | 336 ft | 18 kts | 72° |
| 2026-05-05 07:01 | 50.03619 | 8.52849 | 336 ft | 18 kts | 123° |
| 2026-05-05 07:02 | 50.03591 | 8.52993 | 337 ft | 14 kts | 72° |
| 2026-05-05 07:02 | 50.03623 | 8.53140 | 338 ft | 15 kts | 65° |
| 2026-05-05 07:02 | 50.03661 | 8.53289 | 341 ft | 15 kts | 69° |
| 2026-05-05 07:02 | 50.03697 | 8.53444 | 345 ft | 16 kts | 70° |
| 2026-05-05 07:03 | 50.03667 | 8.53593 | 347 ft | 16 kts | 122° |
| 2026-05-05 07:03 | 50.03687 | 8.53754 | 348 ft | 16 kts | 69° |
| 2026-05-05 07:03 | 50.03727 | 8.53915 | 349 ft | 16 kts | 69° |
| 2026-05-05 07:03 | 50.03770 | 8.54098 | 351 ft | 20 kts | 70° |
| 2026-05-05 07:04 | 50.03829 | 8.54302 | 347 ft | 22 kts | 54° |
| 2026-05-05 07:04 | 50.03899 | 8.54519 | 355 ft | 23 kts | 70° |
| 2026-05-05 07:04 | 50.03954 | 8.54749 | 356 ft | 23 kts | 70° |
| 2026-05-05 07:04 | 50.04008 | 8.54974 | 361 ft | 22 kts | 69° |
| 2026-05-05 07:05 | 50.04062 | 8.55199 | 356 ft | 23 kts | 69° |
| 2026-05-05 07:05 | 50.04119 | 8.55437 | 351 ft | 24 kts | 69° |
| 2026-05-05 07:05 | 50.04179 | 8.55688 | 355 ft | 25 kts | 69° |
| 2026-05-05 07:05 | 50.04236 | 8.55926 | 356 ft | 22 kts | 69° |
| 2026-05-05 07:06 | 50.04290 | 8.56154 | 360 ft | 23 kts | 70° |
| 2026-05-05 07:06 | 50.04345 | 8.56385 | 357 ft | 23 kts | 69° |
| 2026-05-05 07:06 | 50.04402 | 8.56620 | 364 ft | 23 kts | 69° |
| 2026-05-05 07:06 | 50.04457 | 8.56830 | 365 ft | 16 kts | 50° |
| 2026-05-05 07:07 | 50.04564 | 8.56896 | 362 ft | 17 kts | 13° |
| 2026-05-05 07:07 | 50.04678 | 8.56952 | 360 ft | 18 kts | 24° |
| 2026-05-05 07:07 | 50.04788 | 8.57032 | 362 ft | 15 kts | 25° |
| 2026-05-05 07:07 | 50.04877 | 8.57079 | 358 ft | 10 kts | 356° |
| 2026-05-05 07:08 | 50.04913 | 8.57073 | 364 ft | 1 kts | 34° |
| 2026-05-05 07:08 | 50.04912 | 8.57081 | 356 ft | 2 kts | 79° |
| 2026-05-05 07:08 | 50.04912 | 8.57084 | 356 ft | 0 kts | 82° |